createdAt,value
2018-12-21T00:01:45.462Z,81.40
2018-12-21T00:04:19.079Z,81.20
2018-12-21T00:06:52.952Z,81.40
2018-12-21T00:09:26.841Z,81.50
2018-12-21T00:12:00.288Z,80.90
2018-12-21T00:14:33.450Z,80.80
2018-12-21T00:17:07.413Z,80.80
2018-12-21T00:19:41.408Z,80.70
2018-12-21T00:22:14.589Z,81.10
2018-12-21T00:24:48.574Z,80.90
2018-12-21T00:27:22.625Z,80.70
2018-12-21T00:29:56.433Z,80.70
2018-12-21T00:32:36.522Z,80.20
2018-12-21T00:35:15.174Z,80.10
2018-12-21T00:37:54.232Z,79.80
2018-12-21T00:40:33.030Z,79.70
2018-12-21T00:43:09.016Z,79.70
2018-12-21T00:45:44.474Z,79.50
2018-12-21T00:48:17.697Z,79.50
2018-12-21T00:50:51.745Z,79.50
2018-12-21T00:53:25.564Z,79.80
2018-12-21T00:55:59.636Z,79.80
2018-12-21T00:58:33.482Z,79.80
2018-12-21T01:01:06.833Z,80.00
2018-12-21T01:03:40.644Z,79.80
2018-12-21T01:06:14.685Z,79.80
2018-12-21T01:08:48.628Z,79.80
2018-12-21T01:11:21.740Z,79.60
2018-12-21T01:13:55.793Z,79.70
2018-12-21T01:16:29.047Z,79.70
2018-12-21T01:19:00.081Z,79.50
2018-12-21T01:21:38.794Z,79.40
2018-12-21T01:24:09.427Z,79.40
2018-12-21T01:26:42.598Z,79.50
2018-12-21T01:29:16.581Z,79.50
2018-12-21T01:31:50.665Z,79.10
2018-12-21T01:34:23.924Z,79.10
2018-12-21T01:36:57.053Z,79.10
2018-12-21T01:39:30.185Z,78.90
2018-12-21T01:42:03.401Z,78.80
2018-12-21T01:44:37.336Z,78.80
2018-12-21T01:47:10.506Z,78.40
2018-12-21T01:49:44.332Z,78.60
2018-12-21T01:52:18.299Z,78.50
2018-12-21T01:54:51.433Z,78.50
2018-12-21T01:57:25.393Z,78.50
2018-12-21T01:59:59.359Z,78.50
2018-12-21T02:02:33.261Z,78.60
2018-12-21T02:05:06.595Z,78.70
2018-12-21T02:07:39.708Z,78.70
2018-12-21T02:10:12.870Z,79.10
2018-12-21T02:12:46.811Z,79.10
2018-12-21T02:15:20.871Z,78.80
2018-12-21T02:17:54.830Z,79.10
2018-12-21T02:20:29.095Z,78.60
2018-12-21T02:23:02.817Z,78.40
2018-12-21T02:25:36.000Z,78.40
2018-12-21T02:28:09.113Z,78.30
2018-12-21T02:30:43.141Z,78.50
2018-12-21T02:33:16.265Z,78.40
2018-12-21T02:35:50.298Z,78.40
2018-12-21T02:38:23.521Z,78.30
2018-12-21T02:40:56.692Z,78.40
2018-12-21T02:43:30.665Z,78.50
2018-12-21T02:46:04.641Z,78.30
2018-12-21T02:48:38.700Z,78.50
2018-12-21T02:51:12.664Z,78.50
2018-12-21T02:53:45.976Z,78.90
2018-12-21T02:56:19.994Z,78.90
2018-12-21T02:58:53.965Z,79.10
2018-12-21T03:01:33.916Z,79.20
2018-12-21T03:34:58.095Z,78.40
2018-12-21T03:37:31.279Z,78.60
2018-12-21T03:40:05.665Z,78.50
2018-12-21T03:42:39.313Z,78.60
2018-12-21T03:45:10.557Z,78.40
2018-12-21T03:47:44.398Z,78.30
2018-12-21T03:50:18.369Z,78.40
2018-12-21T03:52:52.325Z,78.30
2018-12-21T03:55:25.480Z,78.40
2018-12-21T03:57:58.615Z,78.50
2018-12-21T04:00:32.629Z,78.60
2018-12-21T04:03:05.740Z,78.70
2018-12-21T04:05:39.748Z,78.50
2018-12-21T04:08:13.756Z,78.50
2018-12-21T04:10:46.966Z,78.20
2018-12-21T04:13:20.224Z,78.30
2018-12-21T04:15:53.428Z,78.00
2018-12-21T04:18:28.644Z,78.10
2018-12-21T04:21:02.585Z,78.10
2018-12-21T04:23:36.623Z,78.00
2018-12-21T04:26:10.652Z,78.10
2018-12-21T04:28:43.769Z,77.90
2018-12-21T04:31:16.904Z,78.20
2018-12-21T04:33:50.835Z,78.30
2018-12-21T04:36:24.852Z,78.30
2018-12-21T04:38:58.903Z,78.40
2018-12-21T04:41:32.858Z,78.40
2018-12-21T04:44:06.926Z,78.30
2018-12-21T04:46:41.028Z,78.30
2018-12-21T04:49:15.134Z,78.40
2018-12-21T04:51:49.146Z,78.30
2018-12-21T04:54:22.264Z,78.40
2018-12-21T04:56:56.138Z,78.30
2018-12-21T04:59:29.324Z,78.40
2018-12-21T05:02:03.432Z,78.60
2018-12-21T05:04:37.378Z,78.70
2018-12-21T05:07:12.522Z,79.20
2018-12-21T05:09:46.302Z,79.40
2018-12-21T05:12:19.580Z,79.20
2018-12-21T05:15:06.259Z,79.10
2018-12-21T05:17:39.715Z,78.70
2018-12-21T05:20:13.685Z,78.80
2018-12-21T05:22:52.173Z,79.20
2018-12-21T05:25:22.688Z,79.20
2018-12-21T05:27:55.935Z,79.30
2018-12-21T05:30:29.889Z,79.30
2018-12-21T05:33:03.953Z,79.20
2018-12-21T05:35:37.110Z,79.40
2018-12-21T05:38:10.238Z,79.60
2018-12-21T05:40:43.361Z,80.00
2018-12-21T05:43:16.478Z,80.90
2018-12-21T05:45:50.487Z,81.60
2018-12-21T05:48:23.703Z,82.80
2018-12-21T05:50:57.514Z,83.50
2018-12-21T05:53:30.832Z,83.90
2018-12-21T05:56:04.167Z,84.20
2018-12-21T05:58:38.175Z,84.60
2018-12-21T06:01:12.235Z,84.90
2018-12-21T06:03:46.091Z,85.40
2018-12-21T06:06:19.833Z,86.20
2018-12-21T06:08:53.738Z,86.60
2018-12-21T06:11:26.975Z,87.30
2018-12-21T06:14:01.139Z,87.90
2018-12-21T06:16:31.727Z,88.40
2018-12-21T06:19:05.676Z,89.10
2018-12-21T06:21:39.260Z,89.70
2018-12-21T06:24:13.054Z,90.10
2018-12-21T06:26:47.074Z,90.20
2018-12-21T06:29:20.621Z,90.50
2018-12-21T06:31:53.892Z,90.90
2018-12-21T06:34:27.923Z,91.10
2018-12-21T06:37:01.843Z,91.50
2018-12-21T06:39:34.986Z,91.40
2018-12-21T06:42:08.222Z,91.80
2018-12-21T06:44:42.128Z,91.70
2018-12-21T06:47:15.296Z,91.80
2018-12-21T06:49:49.235Z,92.10
2018-12-21T06:52:23.248Z,92.40
2018-12-21T06:54:57.196Z,92.40
2018-12-21T06:57:31.215Z,92.60
2018-12-21T07:00:07.184Z,92.80
2018-12-21T07:02:40.634Z,92.70
2018-12-21T07:05:14.430Z,92.50
2018-12-21T07:07:48.384Z,92.40
2018-12-21T07:10:22.303Z,92.10
2018-12-21T07:12:56.375Z,91.90
2018-12-21T07:15:29.478Z,91.70
2018-12-21T07:18:02.710Z,91.80
2018-12-21T07:20:36.719Z,92.00
2018-12-21T07:23:10.795Z,91.90
2018-12-21T07:25:44.736Z,91.40
2018-12-21T07:28:18.681Z,91.80
2018-12-21T07:30:51.779Z,91.70
2018-12-21T07:33:25.068Z,91.30
2018-12-21T07:36:08.091Z,91.50
2018-12-21T07:38:34.210Z,91.50
2018-12-21T07:41:07.326Z,91.10
2018-12-21T07:43:40.720Z,91.10
2018-12-21T07:46:13.935Z,91.10
2018-12-21T07:48:51.575Z,91.60
2018-12-21T07:51:25.337Z,91.70
2018-12-21T07:53:59.384Z,91.20
2018-12-21T07:56:32.608Z,90.70
2018-12-21T07:59:05.936Z,91.00
2018-12-21T08:01:39.980Z,91.20
2018-12-21T08:04:13.253Z,90.50
2018-12-21T08:06:46.402Z,90.70
2018-12-21T08:09:19.634Z,91.10
2018-12-21T08:11:53.697Z,91.00
2018-12-21T08:14:27.612Z,90.60
2018-12-21T08:17:00.765Z,91.10
2018-12-21T08:19:34.794Z,91.20
2018-12-21T08:22:08.778Z,91.40
2018-12-21T08:24:42.610Z,91.50
2018-12-21T08:27:16.624Z,91.00
2018-12-21T08:29:49.767Z,91.40
2018-12-21T08:32:23.795Z,91.30
2018-12-21T08:34:57.807Z,91.30
2018-12-21T08:37:30.917Z,91.00
2018-12-21T08:40:05.247Z,91.20
2018-12-21T08:45:13.211Z,90.60
2018-12-21T08:47:46.511Z,90.80
2018-12-21T08:50:19.671Z,90.50
2018-12-21T08:52:54.012Z,90.20
2018-12-21T08:55:27.648Z,90.30
2018-12-21T08:58:00.781Z,90.40
2018-12-21T09:00:34.842Z,90.40
2018-12-21T09:03:08.689Z,90.10
2018-12-21T09:05:42.260Z,90.10
2018-12-21T09:08:15.632Z,89.90
2018-12-21T09:10:49.588Z,89.90
2018-12-21T09:13:22.717Z,89.90
2018-12-21T09:15:56.745Z,89.90
2018-12-21T09:18:29.856Z,89.90
2018-12-21T09:21:03.963Z,90.00
2018-12-21T09:23:37.078Z,89.80
2018-12-21T09:26:10.201Z,89.90
2018-12-21T09:28:43.427Z,89.80
2018-12-21T09:31:17.443Z,90.00
2018-12-21T09:33:51.509Z,89.40
2018-12-21T09:36:24.747Z,89.40
2018-12-21T09:38:58.647Z,89.70
2018-12-21T09:41:32.621Z,89.60
2018-12-21T09:44:06.445Z,89.40
2018-12-21T09:46:40.457Z,89.60
2018-12-21T09:49:13.635Z,89.20
2018-12-21T09:51:46.849Z,89.50
2018-12-21T09:54:20.005Z,90.00
2018-12-21T09:56:53.254Z,90.00
2018-12-21T09:59:26.369Z,90.10
2018-12-21T10:02:00.404Z,90.20
2018-12-21T10:04:33.502Z,90.10
2018-12-21T10:07:13.661Z,90.10
2018-12-21T10:09:46.772Z,90.20
2018-12-21T10:12:20.844Z,90.10
2018-12-21T10:14:53.995Z,90.50
2018-12-21T10:17:27.148Z,90.30
2018-12-21T10:20:00.409Z,90.50
2018-12-21T10:22:33.547Z,90.30
2018-12-21T10:25:08.571Z,90.10
2018-12-21T10:27:42.649Z,90.30
2018-12-21T10:30:15.886Z,90.40
2018-12-21T10:32:49.946Z,90.60
2018-12-21T10:35:23.226Z,90.20
2018-12-21T10:37:57.288Z,90.10
2018-12-21T10:40:30.441Z,89.60
2018-12-21T10:43:03.603Z,90.60
2018-12-21T10:45:41.565Z,90.70
2018-12-21T10:48:12.155Z,90.70
2018-12-21T10:50:46.280Z,90.90
2018-12-21T10:53:20.504Z,90.70
2018-12-21T10:55:54.474Z,90.90
2018-12-21T10:58:28.572Z,90.50
2018-12-21T11:01:04.944Z,90.20
2018-12-21T11:03:43.744Z,90.10
2018-12-21T11:06:17.740Z,89.90
2018-12-21T11:08:51.846Z,90.10
2018-12-21T11:11:25.913Z,89.60
2018-12-21T11:14:00.176Z,89.90
2018-12-21T11:16:38.302Z,89.60
2018-12-21T11:19:12.562Z,89.20
2018-12-21T11:21:45.902Z,88.70
2018-12-21T11:24:19.195Z,88.90
2018-12-21T11:26:53.083Z,89.40
2018-12-21T11:29:27.187Z,89.80
2018-12-21T11:32:01.289Z,89.80
2018-12-21T11:34:35.276Z,89.20
2018-12-21T11:37:09.633Z,88.90
2018-12-21T11:39:44.425Z,88.60
2018-12-21T11:42:17.886Z,89.30
2018-12-21T11:44:51.949Z,89.20
2018-12-21T11:47:26.010Z,89.40
2018-12-21T11:49:59.135Z,89.10
2018-12-21T11:52:33.075Z,89.30
2018-12-21T12:15:10.113Z,91.00
2018-12-21T12:17:44.173Z,91.10
2018-12-21T12:20:18.217Z,90.80
2018-12-21T12:22:52.206Z,91.20
2018-12-21T12:25:25.574Z,91.20
2018-12-21T12:27:59.335Z,90.90
2018-12-21T12:30:32.468Z,91.00
2018-12-21T12:33:06.519Z,90.70
2018-12-21T12:35:40.491Z,91.50
2018-12-21T12:38:13.798Z,92.00
2018-12-21T12:40:48.624Z,91.70
2018-12-21T12:43:23.926Z,91.30
2018-12-21T12:45:57.760Z,91.70
2018-12-21T12:48:30.895Z,91.70
2018-12-21T12:51:07.326Z,91.80
2018-12-21T12:53:44.152Z,91.80
2018-12-21T12:56:18.238Z,91.50
2018-12-21T12:58:52.281Z,91.30
2018-12-21T13:01:26.287Z,91.20
2018-12-21T13:03:59.542Z,91.80
2018-12-21T13:06:37.693Z,91.80
2018-12-21T13:09:11.758Z,91.80
2018-12-21T13:11:45.845Z,91.70
2018-12-21T13:14:19.950Z,91.80
2018-12-21T13:16:54.323Z,91.50
2018-12-21T13:19:28.196Z,91.50
2018-12-21T13:22:02.272Z,91.50
2018-12-21T13:24:36.343Z,91.30
2018-12-21T13:27:09.484Z,91.10
2018-12-21T13:29:42.720Z,91.00
2018-12-21T13:32:16.730Z,90.70
2018-12-21T13:34:52.725Z,90.00
2018-12-21T13:37:26.725Z,89.80
2018-12-21T13:40:00.700Z,90.00
2018-12-21T13:42:34.650Z,90.00
2018-12-21T13:45:08.105Z,90.10
2018-12-21T13:47:44.124Z,90.40
2018-12-21T13:50:18.041Z,90.40
2018-12-21T13:52:52.087Z,90.30
2018-12-21T13:55:26.117Z,90.30
2018-12-21T13:57:59.854Z,90.10
2018-12-21T14:00:31.039Z,89.70
2018-12-21T14:03:04.676Z,88.70
2018-12-21T14:05:38.704Z,88.30
2018-12-21T14:08:12.577Z,88.30
2018-12-21T14:10:46.624Z,88.90
2018-12-21T14:13:20.581Z,88.70
2018-12-21T14:15:54.521Z,88.70
2018-12-21T14:18:27.688Z,89.10
2018-12-21T14:21:01.630Z,89.10
2018-12-21T14:23:35.750Z,88.20
2018-12-21T14:26:08.873Z,87.90
2018-12-21T14:28:42.656Z,87.10
2018-12-21T14:31:16.070Z,87.30
2018-12-21T14:33:50.024Z,86.80
2018-12-21T14:36:24.101Z,86.60
2018-12-21T14:38:57.906Z,87.00
2018-12-21T14:41:31.030Z,86.60
2018-12-21T14:44:04.225Z,86.60
2018-12-21T14:46:38.332Z,87.80
2018-12-21T14:49:11.637Z,88.70
2018-12-21T14:51:45.555Z,89.30
2018-12-21T14:54:18.714Z,89.60
2018-12-21T14:56:51.947Z,89.60
2018-12-21T14:59:25.546Z,88.70
2018-12-21T15:01:59.286Z,87.80
2018-12-21T15:04:32.416Z,87.40
2018-12-21T15:07:06.380Z,87.20
2018-12-21T15:09:40.424Z,88.10
2018-12-21T15:12:15.709Z,88.00
2018-12-21T15:14:49.289Z,88.20
2018-12-21T15:17:23.333Z,88.40
2018-12-21T15:19:56.451Z,87.90
2018-12-21T15:22:29.598Z,88.20
2018-12-21T15:25:04.819Z,88.10
2018-12-21T15:27:38.814Z,88.10
2018-12-21T15:30:12.226Z,87.90
2018-12-21T15:32:45.985Z,86.90
2018-12-21T15:35:20.065Z,85.90
2018-12-21T15:37:53.249Z,85.90
2018-12-21T15:40:27.337Z,86.00
2018-12-21T15:43:01.273Z,86.20
2018-12-21T15:45:35.268Z,85.60
2018-12-21T15:48:09.332Z,85.30
2018-12-21T15:50:43.171Z,85.50
2018-12-21T15:53:18.970Z,85.20
2018-12-21T15:55:54.825Z,85.50
2018-12-21T15:58:27.311Z,85.40
2018-12-21T16:01:01.241Z,85.10
2018-12-21T16:03:34.477Z,84.80
2018-12-21T16:06:08.542Z,84.50
2018-12-21T16:08:41.694Z,84.40
2018-12-21T16:11:15.736Z,84.20
2018-12-21T16:13:49.011Z,84.40
2018-12-21T16:16:22.270Z,84.40
2018-12-21T16:18:55.381Z,84.30
2018-12-21T16:21:29.473Z,84.30
2018-12-21T16:24:06.970Z,84.10
2018-12-21T16:26:38.730Z,83.80
2018-12-21T16:29:12.799Z,83.80
2018-12-21T16:31:45.968Z,83.80
2018-12-21T16:34:19.148Z,83.60
2018-12-21T16:36:53.218Z,83.70
2018-12-21T16:39:27.174Z,83.50
2018-12-21T16:42:00.432Z,83.50
2018-12-21T16:44:34.489Z,83.40
2018-12-21T16:47:08.502Z,83.60
2018-12-21T16:49:41.641Z,83.60
2018-12-21T16:52:15.801Z,83.50
2018-12-21T16:54:49.988Z,83.40
2018-12-21T16:57:24.014Z,83.20
2018-12-21T16:59:58.045Z,83.10
2018-12-21T17:02:32.213Z,83.50
2018-12-21T17:05:05.989Z,82.80
2018-12-21T17:07:39.322Z,82.80
2018-12-21T17:10:13.403Z,82.80
2018-12-21T17:12:47.446Z,83.20
2018-12-21T17:15:21.469Z,83.20
2018-12-21T17:17:55.531Z,83.80
2018-12-21T17:20:29.606Z,83.70
2018-12-21T17:23:03.627Z,83.20
2018-12-21T17:25:37.464Z,83.70
2018-12-21T17:28:11.393Z,83.60
2018-12-21T17:30:45.496Z,83.20
2018-12-21T17:33:19.509Z,83.60
2018-12-21T17:35:53.606Z,83.50
2018-12-21T17:38:27.635Z,83.20
2018-12-21T17:41:00.876Z,83.00
2018-12-21T17:43:34.805Z,82.90
2018-12-21T17:46:08.119Z,83.40
2018-12-21T17:48:41.261Z,83.90
2018-12-21T17:51:15.334Z,83.80
2018-12-21T17:53:48.541Z,83.70
2018-12-21T17:56:29.866Z,83.60
2018-12-21T17:58:57.945Z,83.50
2018-12-21T18:01:31.171Z,83.20
2018-12-21T18:04:05.251Z,83.20
2018-12-21T18:06:38.959Z,83.10
2018-12-21T18:09:12.884Z,83.40
2018-12-21T18:11:47.834Z,83.50
2018-12-21T18:14:21.194Z,83.50
2018-12-21T18:16:55.149Z,83.50
2018-12-21T18:19:28.536Z,83.20
2018-12-21T18:22:02.766Z,83.60
2018-12-21T18:24:36.617Z,84.80
2018-12-21T18:27:09.742Z,85.60
2018-12-21T18:29:43.845Z,85.30
2018-12-21T18:32:17.952Z,85.20
2018-12-21T18:34:51.878Z,84.30
2018-12-21T18:37:25.989Z,84.00
2018-12-21T18:39:59.874Z,83.80
2018-12-21T18:42:33.602Z,83.80
2018-12-21T18:45:07.670Z,83.90
2018-12-21T18:47:41.663Z,84.10
2018-12-21T18:50:15.518Z,84.10
2018-12-21T18:52:49.530Z,84.00
2018-12-21T18:55:22.769Z,84.00
2018-12-21T19:00:30.557Z,84.10
2018-12-21T19:03:03.739Z,84.00
2018-12-21T19:05:37.781Z,83.80
2018-12-21T19:08:11.023Z,83.80
2018-12-21T19:10:44.250Z,83.80
2018-12-21T19:13:18.273Z,83.90
2018-12-21T19:15:52.242Z,83.80
2018-12-21T19:18:25.357Z,83.40
2018-12-21T19:20:56.417Z,83.20
2018-12-21T19:23:30.278Z,83.20
2018-12-21T19:26:03.581Z,83.50
2018-12-21T19:28:37.622Z,83.50
2018-12-21T19:31:11.031Z,83.60
2018-12-21T19:33:44.765Z,83.60
2018-12-21T19:36:18.754Z,83.20
2018-12-21T19:38:52.752Z,83.20
2018-12-21T19:41:26.059Z,83.40
2018-12-21T19:43:59.931Z,83.20
2018-12-21T19:46:33.057Z,83.50
2018-12-21T19:49:06.216Z,83.60
2018-12-21T19:51:40.274Z,83.50
2018-12-21T19:54:14.266Z,83.60
2018-12-21T19:56:49.141Z,83.70
2018-12-21T19:59:22.294Z,83.50
2018-12-21T20:01:55.508Z,83.40
2018-12-21T20:04:29.458Z,83.00
2018-12-21T20:07:03.650Z,83.10
2018-12-21T20:09:37.773Z,82.80
2018-12-21T20:12:11.773Z,82.90
2018-12-21T20:14:45.845Z,82.80
2018-12-21T20:17:19.813Z,82.80
2018-12-21T20:19:53.904Z,82.70
2018-12-21T20:22:30.921Z,82.60
2018-12-21T20:25:04.833Z,82.80
2018-12-21T20:27:38.171Z,82.80
2018-12-21T20:30:12.954Z,83.00
2018-12-21T20:32:46.125Z,83.20
2018-12-21T20:35:19.265Z,83.20
2018-12-21T20:37:52.781Z,83.90
2018-12-21T20:40:26.610Z,84.20
2018-12-21T20:42:59.737Z,83.90
2018-12-21T20:45:33.782Z,84.00
2018-12-21T20:48:07.798Z,84.00
2018-12-21T20:50:40.921Z,84.10
2018-12-21T20:53:14.847Z,84.50
2018-12-21T20:55:48.826Z,85.70
2018-12-21T20:58:24.071Z,87.20
2018-12-21T21:00:57.587Z,88.00
2018-12-21T21:03:30.808Z,88.30
2018-12-21T21:06:03.982Z,88.40
2018-12-21T21:08:38.057Z,88.70
2018-12-21T21:11:12.090Z,88.50
2018-12-21T21:13:45.370Z,88.50
2018-12-21T21:16:18.825Z,88.60
2018-12-21T21:18:52.847Z,89.40
2018-12-21T21:21:26.921Z,90.20
2018-12-21T21:24:01.011Z,91.10
2018-12-21T21:26:35.095Z,91.80
2018-12-21T21:29:08.932Z,92.60
2018-12-21T21:31:43.014Z,93.50
2018-12-21T21:34:16.209Z,93.80
2018-12-21T21:36:50.189Z,94.10
2018-12-21T21:39:24.228Z,94.10
2018-12-21T21:41:58.249Z,94.50
2018-12-21T21:44:32.193Z,94.70
2018-12-21T21:47:06.270Z,94.90
2018-12-21T21:49:40.192Z,95.10
2018-12-21T21:52:13.344Z,95.00
2018-12-21T21:54:46.606Z,95.10
2018-12-21T21:57:19.862Z,95.10
2018-12-21T21:59:53.097Z,94.70
2018-12-21T22:02:27.125Z,94.30
2018-12-21T22:05:00.381Z,93.80
2018-12-21T22:07:33.567Z,93.20
2018-12-21T22:10:07.426Z,93.10
2018-12-21T22:12:40.794Z,92.90
2018-12-21T22:15:14.678Z,92.80
2018-12-21T22:17:48.551Z,92.60
2018-12-21T22:20:22.606Z,92.60
2018-12-21T22:22:56.025Z,92.40
2018-12-21T22:25:30.270Z,92.50
2018-12-21T22:28:03.718Z,92.30
2018-12-21T22:30:37.294Z,92.20
2018-12-21T22:33:10.558Z,92.00
2018-12-21T22:35:43.914Z,92.10
2018-12-21T22:38:17.871Z,92.50
2018-12-21T22:40:51.837Z,92.50
2018-12-21T22:43:25.781Z,92.60
2018-12-21T22:45:59.725Z,92.90
2018-12-21T22:48:33.753Z,93.50
2018-12-21T22:51:07.762Z,94.30
2018-12-21T22:53:41.009Z,95.00
2018-12-21T22:56:14.989Z,95.70
2018-12-21T22:58:49.076Z,96.40
2018-12-21T23:01:22.278Z,96.40
2018-12-21T23:03:56.422Z,96.40
2018-12-21T23:06:30.461Z,96.30
2018-12-21T23:09:05.083Z,96.00
2018-12-21T23:11:38.508Z,95.70
2018-12-21T23:14:12.642Z,95.60
2018-12-21T23:16:48.892Z,95.20
2018-12-21T23:19:22.773Z,95.10
2018-12-21T23:21:56.796Z,94.90
2018-12-21T23:24:29.951Z,95.00
2018-12-21T23:27:03.101Z,95.80
2018-12-21T23:29:37.041Z,96.50
2018-12-21T23:32:10.867Z,96.80
2018-12-21T23:34:44.083Z,97.10
2018-12-21T23:37:18.098Z,97.00
2018-12-21T23:39:51.928Z,96.80
2018-12-21T23:42:25.944Z,96.30
2018-12-21T23:44:59.948Z,96.20
2018-12-21T23:47:33.866Z,95.50
2018-12-21T23:50:07.040Z,95.50
2018-12-21T23:52:40.193Z,95.10
2018-12-21T23:55:14.194Z,95.10
2018-12-21T23:57:48.169Z,95.20
